Time;durP1;ratioP1;P1;durP2;ratioP2;P2;SDS_P1;SDS_P2;PMS_P1;PMS_P2;Temp;Humidity;BMP_temperature;BMP_pressure;BME280_temperature;BME280_humidity;BME280_pressure;Samples;Min_cycle;Max_cycle;Signal;HPM_P1;HPM_P2
2022/05/04 00:01:08;;;;;;;12.05;3.30;;;9.20;99.90;;;;;;5016635;28;20045;-72
2022/05/04 00:03:39;;;;;;;12.07;3.17;;;9.20;99.90;;;;;;5016002;28;20049;-73
2022/05/04 00:06:09;;;;;;;12.68;3.33;;;9.20;99.90;;;;;;5016957;28;20052;-72
2022/05/04 00:08:35;;;;;;;7.40;2.50;;;9.20;99.90;;;;;;5033235;28;20483;-72
2022/05/04 00:11:01;;;;;;;13.63;3.30;;;9.20;99.90;;;;;;5016477;28;20073;-73
2022/05/04 00:13:28;;;;;;;9.75;3.03;;;9.20;99.90;;;;;;5033327;28;20041;-73
2022/05/04 00:15:54;;;;;;;11.05;3.28;;;9.10;99.90;;;;;;5016462;28;20041;-72
2022/05/04 00:18:20;;;;;;;12.73;3.00;;;9.10;99.90;;;;;;5032254;28;20045;-72
2022/05/04 00:20:46;;;;;;;11.15;3.05;;;9.10;99.90;;;;;;5015620;28;20103;-73
2022/05/04 00:23:12;;;;;;;12.57;3.03;;;9.10;99.90;;;;;;5032268;28;20049;-73
2022/05/04 00:25:38;;;;;;;8.40;2.58;;;9.10;99.90;;;;;;5015552;28;20161;-73
2022/05/04 00:28:04;;;;;;;13.55;3.00;;;9.10;99.90;;;;;;5015820;28;20139;-73
2022/05/04 00:30:31;;;;;;;11.40;3.28;;;9.10;99.90;;;;;;5015303;28;20049;-72
2022/05/04 00:32:57;;;;;;;12.25;3.10;;;9.10;99.90;;;;;;5015294;28;20076;-72
2022/05/04 00:35:24;;;;;;;11.60;2.72;;;9.10;99.90;;;;;;5015853;28;20496;-73
2022/05/04 00:37:49;;;;;;;14.52;3.00;;;9.10;99.90;;;;;;5015949;28;20041;-73
2022/05/04 00:40:15;;;;;;;13.75;3.30;;;9.00;99.90;;;;;;5031312;28;20045;-74
2022/05/04 00:42:41;;;;;;;13.73;2.90;;;9.00;99.90;;;;;;5032570;28;20488;-72
2022/05/04 00:45:07;;;;;;;13.25;3.70;;;9.00;99.90;;;;;;5016213;28;20045;-72
2022/05/04 00:47:32;;;;;;;11.63;2.88;;;9.00;99.90;;;;;;5015378;28;20125;-72
2022/05/04 00:50:04;;;;;;;11.02;2.53;;;9.00;99.90;;;;;;5015012;28;20033;-72
2022/05/04 00:52:32;;;;;;;13.07;2.97;;;9.00;99.90;;;;;;5014952;28;20048;-72
2022/05/04 00:54:59;;;;;;;11.00;2.80;;;9.00;99.90;;;;;;5015403;28;20049;-73
2022/05/04 01:00:12;;;;;;;9.20;2.83;;;8.90;99.90;;;;;;5031210;28;20045;-72
2022/05/04 01:02:39;;;;;;;13.30;2.92;;;8.90;99.90;;;;;;5015122;28;20132;-72
2022/05/04 01:05:11;;;;;;;9.73;2.95;;;8.90;99.90;;;;;;5015575;28;20400;-73
2022/05/04 01:07:42;;;;;;;13.68;2.85;;;8.90;99.90;;;;;;5032321;28;20041;-72
2022/05/04 01:10:10;;;;;;;12.52;3.05;;;8.90;99.90;;;;;;5015505;28;20466;-73
2022/05/04 01:12:36;;;;;;;13.95;2.78;;;8.90;99.90;;;;;;5015694;28;20407;-73
2022/05/04 01:15:03;;;;;;;12.73;2.92;;;8.90;99.90;;;;;;5015438;28;20041;-72
2022/05/04 01:17:29;;;;;;;13.95;3.05;;;8.90;99.90;;;;;;5014662;28;20038;-72
2022/05/04 01:19:59;;;;;;;12.15;2.63;;;8.90;99.90;;;;;;5031256;28;20499;-73
2022/05/04 01:22:24;;;;;;;12.52;2.97;;;8.90;99.90;;;;;;5015320;28;20076;-72
2022/05/04 01:24:51;;;;;;;13.57;2.83;;;8.80;99.90;;;;;;5014884;28;20095;-73
2022/05/04 01:27:17;;;;;;;12.93;3.08;;;8.80;99.90;;;;;;5014709;28;20037;-73
2022/05/04 01:29:42;;;;;;;10.45;2.80;;;8.80;99.90;;;;;;5014096;28;20034;-72
2022/05/04 01:32:08;;;;;;;11.43;2.78;;;8.80;99.90;;;;;;5014699;28;20449;-72
2022/05/04 01:34:34;;;;;;;13.30;3.08;;;8.80;99.90;;;;;;5030865;28;20115;-72
2022/05/04 01:37:03;;;;;;;15.90;3.08;;;8.80;99.90;;;;;;5031799;28;20091;-72
2022/05/04 01:39:29;;;;;;;12.50;3.30;;;8.80;99.90;;;;;;5014372;28;20064;-73
2022/05/04 01:42:13;;;;;;;10.25;2.90;;;8.80;99.90;;;;;;5030867;28;20045;-72
2022/05/04 01:44:41;;;;;;;13.77;3.33;;;8.80;99.90;;;;;;5012039;28;20050;-72
2022/05/04 01:47:07;;;;;;;8.52;2.92;;;8.70;99.90;;;;;;4994745;28;20041;-72
2022/05/04 01:49:33;;;;;;;10.80;2.90;;;8.80;99.90;;;;;;5012155;28;20056;-72
2022/05/04 01:51:59;;;;;;;14.95;3.22;;;8.70;99.90;;;;;;5012040;28;20072;-72
2022/05/04 01:54:26;;;;;;;14.07;2.90;;;8.70;99.90;;;;;;5012033;28;20073;-72
2022/05/04 01:56:52;;;;;;;11.80;3.17;;;8.70;99.90;;;;;;4995641;28;20037;-72
2022/05/04 01:59:18;;;;;;;10.48;3.33;;;8.70;99.90;;;;;;4995884;28;20071;-72
2022/05/04 02:01:44;;;;;;;14.55;3.38;;;8.70;99.90;;;;;;5012404;28;20048;-73
2022/05/04 02:04:10;;;;;;;13.80;3.33;;;8.70;99.90;;;;;;4998270;28;20448;-73
2022/05/04 02:06:37;;;;;;;13.00;3.45;;;8.70;99.90;;;;;;5014687;28;20064;-72
2022/05/04 02:09:03;;;;;;;15.90;3.60;;;8.70;99.90;;;;;;5014261;28;20045;-72
2022/05/04 02:11:32;;;;;;;11.43;3.95;;;8.70;99.90;;;;;;5013648;28;20045;-72
2022/05/04 02:13:59;;;;;;;13.73;3.97;;;8.70;99.90;;;;;;5014046;28;20048;-72
2022/05/04 02:16:24;;;;;;;23.17;3.70;;;8.60;99.90;;;;;;4997650;28;20037;-72
2022/05/04 02:18:50;;;;;;;15.20;3.72;;;8.60;99.90;;;;;;5013886;28;20491;-72
2022/05/04 02:21:16;;;;;;;15.48;4.43;;;8.60;99.90;;;;;;5013628;28;20044;-71
2022/05/04 02:23:42;;;;;;;21.15;4.22;;;8.60;99.90;;;;;;5013806;28;20507;-72
2022/05/04 02:26:08;;;;;;;14.25;3.72;;;8.60;99.90;;;;;;5014284;28;20124;-73
2022/05/04 02:28:34;;;;;;;13.93;3.88;;;8.60;99.90;;;;;;4998357;28;20681;-72
2022/05/04 02:30:59;;;;;;;11.80;3.63;;;8.60;99.90;;;;;;5014391;28;20098;-72
2022/05/04 02:33:25;;;;;;;10.85;3.70;;;8.60;99.90;;;;;;5014627;28;20492;-73
2022/05/04 02:38:35;;;;;;;14.60;3.83;;;8.60;99.90;;;;;;5014016;28;20045;-72
2022/05/04 02:41:01;;;;;;;11.70;3.78;;;8.60;99.90;;;;;;5014445;28;20243;-73
2022/05/04 02:43:28;;;;;;;12.35;3.45;;;8.50;99.90;;;;;;5014549;28;20046;-73
2022/05/04 02:45:54;;;;;;;10.93;3.30;;;8.60;99.90;;;;;;4997587;28;20395;-73
2022/05/04 02:48:20;;;;;;;9.50;3.25;;;8.50;99.90;;;;;;5013884;28;20415;-73
2022/05/04 02:50:45;;;;;;;11.68;3.25;;;8.50;99.90;;;;;;5013708;28;20046;-72
2022/05/04 02:53:11;;;;;;;12.20;3.40;;;8.50;99.90;;;;;;5014251;28;20038;-73
2022/05/04 02:55:37;;;;;;;11.80;3.45;;;8.50;99.90;;;;;;5014476;28;20045;-73
2022/05/04 02:58:02;;;;;;;12.27;3.42;;;8.50;99.90;;;;;;5014463;28;20041;-73
2022/05/04 03:00:28;;;;;;;10.90;3.95;;;8.40;99.90;;;;;;5014037;28;20033;-72
2022/05/04 03:02:54;;;;;;;12.55;3.70;;;8.50;99.90;;;;;;5014542;28;20519;-73
2022/05/04 03:05:20;;;;;;;10.65;3.60;;;8.40;99.90;;;;;;5017702;28;20438;-72
2022/05/04 03:07:46;;;;;;;15.30;3.92;;;8.40;99.90;;;;;;5017302;28;20395;-73
2022/05/04 03:10:13;;;;;;;12.35;3.50;;;8.40;99.90;;;;;;5016627;28;20124;-73
2022/05/04 03:12:40;;;;;;;10.07;3.47;;;8.40;99.90;;;;;;5017103;28;20049;-73
2022/05/04 03:15:06;;;;;;;12.10;3.75;;;8.40;99.90;;;;;;5017461;28;20504;-73
2022/05/04 03:17:32;;;;;;;13.30;4.10;;;8.40;99.90;;;;;;5017356;28;20042;-73
2022/05/04 03:19:59;;;;;;;16.08;4.20;;;8.40;99.90;;;;;;5016471;28;20048;-72
2022/05/04 03:22:25;;;;;;;13.18;3.42;;;8.40;99.90;;;;;;5016734;28;20403;-72
2022/05/04 03:24:51;;;;;;;9.95;3.63;;;8.40;99.90;;;;;;5016763;28;20045;-73
2022/05/04 03:27:17;;;;;;;11.55;3.78;;;8.30;99.90;;;;;;5016664;28;20096;-72
2022/05/04 03:29:43;;;;;;;13.80;3.95;;;8.30;99.90;;;;;;5016739;28;20088;-72
2022/05/04 03:32:09;;;;;;;15.32;4.13;;;8.30;99.90;;;;;;5016499;28;20384;-72
2022/05/04 03:34:35;;;;;;;12.70;5.03;;;8.30;99.90;;;;;;5016383;28;20522;-72
2022/05/04 03:37:01;;;;;;;14.65;3.90;;;8.30;99.90;;;;;;5016476;28;20511;-72
2022/05/04 03:39:28;;;;;;;14.90;4.18;;;8.30;99.90;;;;;;5016426;28;20522;-74
2022/05/04 03:41:53;;;;;;;16.30;3.92;;;8.30;99.90;;;;;;5016250;28;20037;-71
2022/05/04 03:44:19;;;;;;;16.00;4.28;;;8.30;99.90;;;;;;5016321;28;20056;-72
2022/05/04 03:46:46;;;;;;;16.33;3.85;;;8.30;99.90;;;;;;5016475;28;20080;-72
2022/05/04 03:49:13;;;;;;;12.68;3.85;;;8.30;99.90;;;;;;5016447;28;20053;-72
2022/05/04 03:51:39;;;;;;;11.02;3.70;;;8.30;99.90;;;;;;5016043;28;20369;-72
2022/05/04 03:54:05;;;;;;;16.25;4.40;;;8.30;99.90;;;;;;5016346;28;20408;-72
2022/05/04 03:56:30;;;;;;;14.93;3.53;;;8.30;99.90;;;;;;4999678;28;20048;-72
2022/05/04 03:58:56;;;;;;;13.27;3.63;;;8.30;99.90;;;;;;5016084;28;20041;-72
2022/05/04 04:01:22;;;;;;;9.90;3.40;;;8.30;99.90;;;;;;5015953;28;20038;-72
2022/05/04 04:03:48;;;;;;;13.15;3.67;;;8.30;99.90;;;;;;5016160;28;20038;-72
2022/05/04 04:06:15;;;;;;;16.00;4.07;;;8.30;99.90;;;;;;5015805;28;20053;-72
2022/05/04 04:08:41;;;;;;;11.23;3.97;;;8.30;99.90;;;;;;5016015;28;20442;-72
2022/05/04 04:11:08;;;;;;;21.80;4.40;;;8.30;99.90;;;;;;5015858;28;20546;-72
2022/05/04 04:13:34;;;;;;;13.32;3.95;;;8.30;99.90;;;;;;4999390;28;20045;-72
2022/05/04 04:16:00;;;;;;;13.20;3.83;;;8.20;99.90;;;;;;5015906;28;20050;-72
2022/05/04 04:18:26;;;;;;;20.80;4.20;;;8.20;99.90;;;;;;5015857;28;20037;-71
2022/05/04 04:23:39;;;;;;;13.18;3.92;;;8.30;99.90;;;;;;5015747;28;20085;-72
2022/05/04 04:26:06;;;;;;;12.52;3.95;;;8.30;99.90;;;;;;5015641;28;20063;-71
2022/05/04 04:28:34;;;;;;;16.13;3.70;;;8.30;99.90;;;;;;5015550;28;20053;-72
2022/05/04 04:31:00;;;;;;;16.83;3.92;;;8.30;99.90;;;;;;5015181;28;20547;-72
2022/05/04 04:33:29;;;;;;;12.07;4.00;;;8.30;99.90;;;;;;5015535;28;20050;-72
2022/05/04 04:35:59;;;;;;;12.70;3.90;;;8.30;99.90;;;;;;5015643;28;20069;-72
2022/05/04 04:38:29;;;;;;;13.32;4.10;;;8.30;99.90;;;;;;5015152;28;20045;-72
2022/05/04 04:40:55;;;;;;;10.85;4.15;;;8.30;99.90;;;;;;5014970;28;20042;-72
2022/05/04 04:43:21;;;;;;;27.42;4.53;;;8.30;99.90;;;;;;4998861;28;20045;-72
2022/05/04 04:45:48;;;;;;;14.95;5.07;;;8.40;99.90;;;;;;5015375;28;20128;-72
2022/05/04 04:48:16;;;;;;;12.52;3.85;;;8.40;99.90;;;;;;5015383;28;20045;-72
2022/05/04 04:50:42;;;;;;;11.52;4.80;;;8.40;99.90;;;;;;5014973;28;20048;-72
2022/05/04 04:53:07;;;;;;;16.63;3.97;;;8.40;99.90;;;;;;5015262;28;20049;-72
2022/05/04 04:55:34;;;;;;;13.02;4.25;;;8.40;99.90;;;;;;5015057;28;20047;-72
2022/05/04 04:58:00;;;;;;;11.55;4.28;;;8.40;99.90;;;;;;5032555;28;20041;-72
2022/05/04 05:00:26;;;;;;;12.70;3.75;;;8.40;99.90;;;;;;5014697;28;20053;-73
2022/05/04 05:02:52;;;;;;;18.52;4.22;;;8.40;99.90;;;;;;5015084;28;20046;-72
2022/05/04 05:05:18;;;;;;;13.98;3.92;;;8.50;99.90;;;;;;5015036;28;20084;-72
2022/05/04 05:07:43;;;;;;;13.70;5.28;;;8.50;99.90;;;;;;5014768;28;20044;-72
2022/05/04 05:10:09;;;;;;;14.07;4.45;;;8.50;99.90;;;;;;5014514;28;20045;-73
2022/05/04 05:12:35;;;;;;;13.98;4.35;;;8.60;99.90;;;;;;5014995;28;20045;-72
2022/05/04 05:17:45;;;;;;;13.70;4.05;;;8.60;99.90;;;;;;5014610;28;20041;-72
2022/05/04 05:20:11;;;;;;;15.70;4.35;;;8.60;99.90;;;;;;5014229;28;20060;-72
2022/05/04 05:22:37;;;;;;;10.75;3.80;;;8.70;99.90;;;;;;5014579;28;20048;-72
2022/05/04 05:25:03;;;;;;;12.27;3.83;;;8.70;99.90;;;;;;5014230;28;20041;-72
2022/05/04 05:27:30;;;;;;;11.68;3.90;;;8.80;99.90;;;;;;5031644;28;20049;-72
2022/05/04 05:29:56;;;;;;;17.15;4.55;;;8.80;99.90;;;;;;5014060;28;20037;-72
2022/05/04 05:32:22;;;;;;;13.82;3.75;;;8.80;99.90;;;;;;5014307;28;20046;-72
2022/05/04 05:34:47;;;;;;;12.00;3.85;;;8.90;99.90;;;;;;5014464;28;20056;-72
2022/05/04 05:37:13;;;;;;;15.48;3.85;;;8.90;99.90;;;;;;5032006;28;20037;-72
2022/05/04 05:39:40;;;;;;;11.02;3.35;;;8.90;99.90;;;;;;5014013;28;20151;-72
2022/05/04 05:42:07;;;;;;;12.43;4.00;;;8.90;99.90;;;;;;5014184;28;20056;-72
2022/05/04 05:44:33;;;;;;;11.57;3.42;;;9.00;99.90;;;;;;5014419;28;20037;-72
2022/05/04 05:46:59;;;;;;;15.50;3.35;;;9.00;99.90;;;;;;5011406;28;20034;-72
2022/05/04 05:49:25;;;;;;;14.20;3.58;;;9.10;99.90;;;;;;5012804;28;20052;-72
2022/05/04 05:51:51;;;;;;;16.95;3.65;;;9.10;99.90;;;;;;5012115;28;20049;-73
2022/05/04 05:54:17;;;;;;;11.98;3.22;;;9.20;99.90;;;;;;5011991;28;20411;-73
2022/05/04 05:56:43;;;;;;;14.30;3.03;;;9.20;99.90;;;;;;5011809;28;20450;-73
2022/05/04 05:59:08;;;;;;;17.48;3.20;;;9.30;99.90;;;;;;5011799;28;20069;-72
2022/05/04 06:01:34;;;;;;;10.93;2.90;;;9.40;99.90;;;;;;5028313;28;20087;-72
2022/05/04 06:04:00;;;;;;;10.13;2.88;;;9.40;99.90;;;;;;4996432;28;20046;-72
2022/05/04 06:06:25;;;;;;;11.52;3.15;;;9.40;99.90;;;;;;5014062;28;20265;-72
2022/05/04 06:08:51;;;;;;;22.20;3.58;;;9.40;99.90;;;;;;5013882;28;20484;-72
2022/05/04 06:11:16;;;;;;;14.27;3.20;;;9.40;99.90;;;;;;5013608;28;20053;-72
2022/05/04 06:13:42;;;;;;;11.35;3.17;;;9.50;99.90;;;;;;5014019;28;20416;-73
2022/05/04 06:16:08;;;;;;;12.35;2.95;;;9.50;99.90;;;;;;5014024;28;20133;-73
2022/05/04 06:18:33;;;;;;;11.90;3.10;;;9.60;99.90;;;;;;4997830;28;20476;-73
2022/05/04 06:21:00;;;;;;;18.48;3.20;;;9.60;99.90;;;;;;5031232;28;20052;-72
2022/05/04 06:23:25;;;;;;;13.40;3.28;;;9.70;99.90;;;;;;5013956;28;20052;-72
2022/05/04 06:25:51;;;;;;;13.05;3.28;;;9.70;99.90;;;;;;5014039;28;20049;-73
2022/05/04 06:28:17;;;;;;;11.45;2.92;;;9.80;99.90;;;;;;5013780;28;20044;-72
2022/05/04 06:36:11;;;;;;;13.90;2.80;;;9.90;99.90;;;;;;5014049;28;20407;-72
2022/05/04 06:38:37;;;;;;;10.02;2.80;;;9.90;99.90;;;;;;5015834;28;20037;-73
2022/05/04 06:41:05;;;;;;;8.93;2.60;;;10.00;99.90;;;;;;5017503;28;20045;-73
2022/05/04 06:43:35;;;;;;;21.23;4.35;;;10.00;99.90;;;;;;5017775;28;20381;-72
2022/05/04 06:46:01;;;;;;;10.77;2.60;;;10.10;99.90;;;;;;5017697;28;20506;-72
2022/05/04 06:48:27;;;;;;;10.43;2.80;;;10.10;99.90;;;;;;5017312;28;20076;-72
2022/05/04 06:50:52;;;;;;;9.00;2.40;;;10.20;98.70;;;;;;5017095;28;20169;-72
2022/05/04 06:53:18;;;;;;;7.85;2.13;;;10.20;99.20;;;;;;5000879;28;20048;-72
2022/05/04 06:55:44;;;;;;;6.15;2.30;;;10.30;99.50;;;;;;5017227;28;20041;-72
2022/05/04 06:58:09;;;;;;;11.98;2.78;;;10.40;98.60;;;;;;5017186;28;20080;-72
2022/05/04 07:00:35;;;;;;;9.25;3.05;;;10.40;96.50;;;;;;5017049;28;20083;-72
2022/05/04 07:03:01;;;;;;;11.32;2.78;;;10.40;98.20;;;;;;5017066;28;20057;-72
2022/05/04 07:05:26;;;;;;;9.40;3.10;;;10.50;99.40;;;;;;5017041;28;20056;-72
2022/05/04 07:07:53;;;;;;;12.23;2.65;;;10.60;95.40;;;;;;5017246;28;20046;-72
2022/05/04 07:10:19;;;;;;;14.55;2.83;;;10.70;92.70;;;;;;5016920;28;20049;-72
2022/05/04 07:12:44;;;;;;;10.38;2.55;;;10.70;93.90;;;;;;5017080;28;20456;-72
2022/05/04 07:15:10;;;;;;;9.93;2.75;;;10.70;95.00;;;;;;5016811;28;20033;-72
2022/05/04 07:17:36;;;;;;;13.20;3.17;;;10.70;93.50;;;;;;5017172;28;20041;-72
2022/05/04 07:20:03;;;;;;;12.90;2.88;;;10.70;91.70;;;;;;5016723;28;20068;-72
2022/05/04 07:22:28;;;;;;;11.70;3.20;;;10.70;94.30;;;;;;5016980;28;20045;-72
2022/05/04 07:24:54;;;;;;;11.95;2.70;;;10.80;94.70;;;;;;5016846;28;20124;-72
2022/05/04 07:27:19;;;;;;;8.93;2.72;;;10.80;93.60;;;;;;5016854;28;20049;-72
2022/05/04 07:29:46;;;;;;;10.63;2.75;;;10.90;92.70;;;;;;5016583;28;20038;-72
2022/05/04 07:32:13;;;;;;;8.55;2.63;;;10.90;91.60;;;;;;5016502;28;20037;-72
2022/05/04 07:34:40;;;;;;;9.25;2.78;;;11.00;91.30;;;;;;5016619;28;20038;-72
2022/05/04 07:37:05;;;;;;;10.23;3.10;;;11.00;92.50;;;;;;5016682;28;20124;-72
2022/05/04 07:42:21;;;;;;;7.50;2.80;;;11.00;90.40;;;;;;5016324;28;20056;-73
2022/05/04 07:44:49;;;;;;;11.13;3.17;;;11.10;90.60;;;;;;5016551;28;20407;-72
2022/05/04 07:47:14;;;;;;;7.10;2.80;;;11.00;92.70;;;;;;5004721;28;20484;-72
2022/05/04 07:49:40;;;;;;;9.18;2.88;;;11.00;95.70;;;;;;4995760;28;20041;-72
2022/05/04 07:52:06;;;;;;;6.60;2.90;;;11.20;93.80;;;;;;4995426;28;20033;-72
2022/05/04 07:54:32;;;;;;;9.25;2.92;;;11.30;93.60;;;;;;5014206;28;20488;-72
2022/05/04 07:56:58;;;;;;;11.70;3.20;;;11.40;93.80;;;;;;4996503;28;20038;-72
2022/05/04 07:59:23;;;;;;;11.18;3.35;;;11.40;92.10;;;;;;4996474;28;20044;-72
2022/05/04 08:04:34;;;;;;;8.20;2.70;;;11.60;92.00;;;;;;4996655;28;20472;-73
2022/05/04 08:07:01;;;;;;;8.23;2.53;;;11.60;90.90;;;;;;4996514;28;20037;-73
2022/05/04 08:09:26;;;;;;;12.23;2.88;;;11.40;89.40;;;;;;4996365;28;20408;-73
2022/05/04 08:11:53;;;;;;;9.52;2.58;;;11.50;86.90;;;;;;4992877;28;20053;-73
2022/05/04 08:14:19;;;;;;;7.32;2.47;;;11.50;83.90;;;;;;5013585;28;20037;-73
2022/05/04 08:16:45;;;;;;;13.40;3.28;;;11.60;88.60;;;;;;5005121;28;20045;-72
2022/05/04 08:19:11;;;;;;;9.00;2.78;;;11.70;90.30;;;;;;5004792;28;20029;-72
2022/05/04 08:21:37;;;;;;;11.55;2.90;;;11.90;89.10;;;;;;5005699;28;20109;-73
2022/05/04 08:24:03;;;;;;;10.23;2.88;;;12.00;87.40;;;;;;5003296;28;20041;-73
2022/05/04 08:26:29;;;;;;;15.90;2.67;;;12.20;86.80;;;;;;5003590;28;20049;-73
2022/05/04 08:28:55;;;;;;;10.82;2.50;;;12.20;82.60;;;;;;5020831;28;20049;-73
2022/05/04 08:31:23;;;;;;;11.80;2.80;;;12.40;81.10;;;;;;5022951;28;20030;-73
2022/05/04 08:33:49;;;;;;;13.38;3.10;;;12.50;80.00;;;;;;5004601;28;20519;-73
2022/05/04 08:36:18;;;;;;;10.00;2.53;;;12.50;81.00;;;;;;5003264;28;20068;-73
2022/05/04 08:38:44;;;;;;;10.30;2.80;;;12.60;80.70;;;;;;5005016;28;20886;-73
2022/05/04 08:41:09;;;;;;;10.23;2.75;;;12.50;77.30;;;;;;5004604;28;20041;-73
2022/05/04 08:43:35;;;;;;;14.00;3.00;;;12.30;78.50;;;;;;5003093;28;20049;-73
2022/05/04 08:46:03;;;;;;;9.65;2.97;;;12.20;81.80;;;;;;5005057;28;20037;-72
2022/05/04 08:48:32;;;;;;;11.07;2.67;;;12.20;82.40;;;;;;4983241;28;20432;-72
2022/05/04 08:51:05;;;;;;;12.00;2.85;;;12.40;80.10;;;;;;4998080;28;20048;-72
2022/05/04 08:53:32;;;;;;;10.38;2.75;;;12.60;83.60;;;;;;5004311;28;20073;-72
2022/05/04 08:55:59;;;;;;;10.88;2.30;;;13.00;78.30;;;;;;4994850;28;20416;-72
2022/05/04 08:58:24;;;;;;;11.70;3.13;;;13.20;77.90;;;;;;4995368;28;20132;-73
2022/05/04 09:00:50;;;;;;;10.80;3.05;;;13.20;77.80;;;;;;4994588;28;20053;-72
2022/05/04 09:03:18;;;;;;;11.93;2.78;;;13.20;73.60;;;;;;4995316;28;20041;-72
2022/05/04 09:05:46;;;;;;;13.02;2.90;;;12.90;69.80;;;;;;4995310;28;20488;-73
2022/05/04 09:08:12;;;;;;;9.40;2.88;;;12.90;69.60;;;;;;4995366;28;20369;-72
2022/05/04 09:10:39;;;;;;;7.75;2.95;;;12.90;69.10;;;;;;4995105;28;20041;-72
2022/05/04 09:13:05;;;;;;;8.02;2.47;;;12.90;67.30;;;;;;4997903;28;20079;-72
2022/05/04 09:15:33;;;;;;;11.38;2.92;;;13.20;67.60;;;;;;5007969;28;20566;-73
2022/05/04 09:18:15;;;;;;;9.65;2.90;;;13.30;66.20;;;;;;5003640;28;20681;-72
2022/05/04 09:20:53;;;;;;;9.95;2.88;;;13.60;65.30;;;;;;5013258;28;20398;-72
2022/05/04 09:23:30;;;;;;;8.45;3.05;;;13.80;65.20;;;;;;5014519;28;20623;-72
2022/05/04 09:26:01;;;;;;;12.38;3.40;;;14.10;62.70;;;;;;5001717;28;20045;-73
2022/05/04 09:28:28;;;;;;;10.25;2.80;;;14.30;63.80;;;;;;5014144;28;20037;-74
2022/05/04 09:31:00;;;;;;;13.63;2.80;;;14.50;63.00;;;;;;5014253;28;20484;-74
2022/05/04 09:33:32;;;;;;;9.55;3.00;;;14.60;63.10;;;;;;5014105;28;20033;-72
2022/05/04 09:35:59;;;;;;;8.55;3.05;;;14.70;65.70;;;;;;5014533;28;20124;-73
2022/05/04 09:46:46;;;;;;;9.88;3.25;;;14.50;66.90;;;;;;5012110;28;21808;-73
2022/05/04 09:49:14;;;;;;;6.68;2.58;;;14.80;65.90;;;;;;5011344;28;20040;-73
2022/05/04 09:51:43;;;;;;;9.23;2.72;;;15.00;63.00;;;;;;5011731;28;20106;-73
2022/05/04 09:54:14;;;;;;;13.55;2.60;;;15.10;61.00;;;;;;5012057;28;20506;-74
2022/05/04 09:56:40;;;;;;;9.38;2.70;;;15.40;61.80;;;;;;4995950;28;20574;-73
2022/05/04 09:59:06;;;;;;;9.73;2.58;;;15.60;61.50;;;;;;5012412;28;20068;-73
2022/05/04 10:01:33;;;;;;;9.45;2.53;;;15.80;58.90;;;;;;5012092;28;20045;-73
2022/05/04 10:04:03;;;;;;;8.13;2.50;;;16.10;60.40;;;;;;4996234;28;20080;-73
2022/05/04 10:06:30;;;;;;;9.88;2.83;;;16.20;59.60;;;;;;5013965;28;20131;-73
2022/05/04 10:08:56;;;;;;;14.55;3.42;;;16.20;59.10;;;;;;5014207;28;20055;-73
2022/05/04 10:11:22;;;;;;;8.15;2.80;;;16.10;55.80;;;;;;5013847;28;20041;-73
2022/05/04 10:13:52;;;;;;;8.15;2.75;;;16.30;54.80;;;;;;5001799;28;20445;-73
2022/05/04 10:16:18;;;;;;;7.35;2.92;;;16.60;55.30;;;;;;5018134;28;20037;-73
2022/05/04 10:18:46;;;;;;;8.65;2.33;;;16.70;53.30;;;;;;5018076;28;20048;-73
2022/05/04 10:21:17;;;;;;;6.57;2.70;;;16.60;52.80;;;;;;5017935;28;20033;-73
2022/05/04 10:23:54;;;;;;;10.18;2.45;;;16.30;51.90;;;;;;5017821;28;20065;-73
2022/05/04 10:26:34;;;;;;;8.70;2.80;;;16.10;53.50;;;;;;5018048;28;20137;-73
2022/05/04 10:31:56;;;;;;;7.50;2.83;;;16.40;52.30;;;;;;5017307;28;20056;-73
2022/05/04 10:34:22;;;;;;;9.80;2.92;;;16.50;52.60;;;;;;5017800;28;20037;-73
2022/05/04 10:36:52;;;;;;;6.72;2.72;;;16.30;52.30;;;;;;5001476;28;20069;-74
2022/05/04 10:39:21;;;;;;;6.95;2.50;;;16.30;52.70;;;;;;5017831;28;20041;-73
2022/05/04 10:41:47;;;;;;;6.90;2.63;;;16.60;52.90;;;;;;5017262;28;20034;-73
2022/05/04 10:44:15;;;;;;;8.55;3.00;;;16.80;52.70;;;;;;5017707;28;20091;-73
2022/05/04 10:46:44;;;;;;;9.90;2.67;;;16.80;51.90;;;;;;5001261;28;20088;-74
2022/05/04 10:49:13;;;;;;;9.13;3.03;;;16.70;52.20;;;;;;5017770;28;20052;-73
2022/05/04 10:51:41;;;;;;;11.40;3.25;;;17.00;52.50;;;;;;5017367;28;20037;-73
2022/05/04 10:54:12;;;;;;;9.65;2.85;;;17.30;52.30;;;;;;5017478;28;20112;-73
2022/05/04 10:56:44;;;;;;;7.10;2.80;;;17.40;52.90;;;;;;5017421;28;20083;-73
2022/05/04 10:59:11;;;;;;;9.50;2.67;;;17.80;52.50;;;;;;5017075;28;20446;-73
2022/05/04 11:01:40;;;;;;;10.60;2.40;;;17.80;50.50;;;;;;5017081;28;20049;-74
2022/05/04 11:04:14;;;;;;;9.88;2.83;;;18.00;51.40;;;;;;5017450;28;20042;-73
2022/05/04 11:06:52;;;;;;;11.30;3.20;;;18.10;50.20;;;;;;5017072;28;20559;-73
2022/05/04 11:09:24;;;;;;;11.10;2.65;;;18.20;48.20;;;;;;5017322;28;20049;-73
2022/05/04 11:11:52;;;;;;;11.43;3.15;;;18.20;49.10;;;;;;5017058;28;20088;-73
2022/05/04 11:14:22;;;;;;;13.65;2.85;;;18.20;50.80;;;;;;5017075;28;20045;-73
2022/05/04 11:16:51;;;;;;;8.60;2.60;;;18.00;48.20;;;;;;5017100;28;20037;-73
2022/05/04 11:19:17;;;;;;;6.93;2.72;;;18.10;50.90;;;;;;5017159;28;20124;-73
2022/05/04 11:21:43;;;;;;;6.53;2.63;;;18.50;50.60;;;;;;5016775;28;20045;-73
2022/05/04 11:24:14;;;;;;;11.20;2.95;;;18.80;49.70;;;;;;5016163;28;20048;-73
2022/05/04 11:26:48;;;;;;;9.82;2.50;;;19.00;49.70;;;;;;5034317;28;20072;-73
2022/05/04 11:29:25;;;;;;;9.70;3.03;;;18.90;48.40;;;;;;5017011;28;20096;-73
2022/05/04 11:31:55;;;;;;;13.95;3.42;;;18.50;47.20;;;;;;5016801;28;20064;-73
2022/05/04 11:34:25;;;;;;;7.53;2.85;;;18.40;49.00;;;;;;5016695;28;20038;-73
2022/05/04 11:36:54;;;;;;;13.35;3.00;;;17.90;47.20;;;;;;5016852;28;20072;-73
2022/05/04 11:39:22;;;;;;;8.30;2.58;;;17.50;47.00;;;;;;5016724;28;20037;-73
2022/05/04 11:41:50;;;;;;;9.73;2.90;;;17.40;47.40;;;;;;5016389;28;20042;-73
2022/05/04 11:44:18;;;;;;;13.95;2.92;;;17.80;47.40;;;;;;5000352;28;20033;-73
2022/05/04 11:46:53;;;;;;;7.85;2.55;;;18.10;47.80;;;;;;5016550;28;20042;-73
2022/05/04 11:49:20;;;;;;;7.20;2.42;;;18.60;47.60;;;;;;5016540;28;20050;-73
2022/05/04 11:51:46;;;;;;;10.68;2.72;;;18.70;46.90;;;;;;5016022;28;20052;-73
2022/05/04 11:54:12;;;;;;;7.53;2.38;;;19.00;46.30;;;;;;5016230;28;20041;-73
2022/05/04 11:56:37;;;;;;;8.77;3.00;;;19.10;48.20;;;;;;5016074;28;20052;-73
2022/05/04 11:59:05;;;;;;;8.25;2.60;;;19.30;46.40;;;;;;5033647;28;20037;-73
2022/05/04 12:01:30;;;;;;;10.68;2.85;;;19.50;45.90;;;;;;5015975;28;20072;-73
2022/05/04 12:03:57;;;;;;;12.65;2.55;;;19.60;46.00;;;;;;5034000;28;20073;-73
2022/05/04 12:06:23;;;;;;;6.97;2.42;;;19.50;47.80;;;;;;5016292;28;20060;-73
2022/05/04 12:08:49;;;;;;;8.90;2.72;;;19.50;47.40;;;;;;5015794;28;20045;-73
2022/05/04 12:11:16;;;;;;;12.52;2.67;;;19.10;46.30;;;;;;5015872;28;20041;-73
2022/05/04 12:13:43;;;;;;;9.63;3.03;;;19.00;49.70;;;;;;5015899;28;20046;-73
2022/05/04 12:16:11;;;;;;;8.32;2.38;;;19.00;46.10;;;;;;5033590;28;20041;-73
2022/05/04 12:18:38;;;;;;;9.90;2.55;;;18.70;46.30;;;;;;5015695;28;20119;-73
2022/05/04 12:21:16;;;;;;;7.90;2.70;;;18.80;47.70;;;;;;5015603;28;20045;-73
2022/05/04 12:23:44;;;;;;;9.40;2.95;;;19.00;47.80;;;;;;4999280;28;20041;-73
2022/05/04 12:26:12;;;;;;;11.30;3.20;;;19.20;47.70;;;;;;5015563;28;20049;-73
2022/05/04 12:28:39;;;;;;;9.98;2.53;;;19.50;45.40;;;;;;5015427;28;20037;-73
2022/05/04 12:33:50;;;;;;;7.57;2.42;;;19.80;46.00;;;;;;5015372;28;20085;-72
2022/05/04 12:36:18;;;;;;;7.75;2.53;;;19.40;44.20;;;;;;5015430;28;20045;-73
2022/05/04 12:38:48;;;;;;;7.50;2.70;;;19.50;46.30;;;;;;5015759;28;20037;-73
2022/05/04 12:41:17;;;;;;;10.32;2.58;;;19.70;44.80;;;;;;5015435;28;20506;-73
2022/05/04 12:43:44;;;;;;;9.30;2.97;;;19.60;44.20;;;;;;5015599;28;20490;-73
2022/05/04 12:46:17;;;;;;;9.10;2.53;;;19.70;44.10;;;;;;5015298;28;20053;-73
2022/05/04 12:48:44;;;;;;;8.23;2.58;;;19.90;43.40;;;;;;5015450;28;20045;-73
2022/05/04 12:51:13;;;;;;;12.05;2.90;;;19.60;43.50;;;;;;5032569;28;20037;-74
2022/05/04 12:53:39;;;;;;;5.03;2.80;;;19.60;46.10;;;;;;5015297;28;20049;-73
2022/05/04 12:58:56;;;;;;;6.63;2.42;;;19.80;46.60;;;;;;5014851;28;20055;-73
2022/05/04 13:01:25;;;;;;;11.40;2.90;;;20.20;43.40;;;;;;5014723;28;20048;-74
2022/05/04 13:03:52;;;;;;;8.68;2.80;;;20.30;44.70;;;;;;5015190;28;20132;-73
2022/05/04 13:06:19;;;;;;;7.95;2.08;;;20.40;44.60;;;;;;5014842;28;20048;-74
2022/05/04 13:08:46;;;;;;;8.35;2.45;;;20.70;43.40;;;;;;5014762;28;20159;-73
2022/05/04 13:11:12;;;;;;;7.43;2.55;;;20.90;40.90;;;;;;5014823;28;20046;-73
2022/05/04 13:13:38;;;;;;;7.57;2.20;;;20.80;42.30;;;;;;5014707;28;20043;-74
2022/05/04 13:16:04;;;;;;;6.65;2.20;;;20.60;42.60;;;;;;5014798;28;20041;-73
2022/05/04 13:18:29;;;;;;;6.45;2.40;;;20.80;40.80;;;;;;5014887;28;20460;-73
2022/05/04 13:20:55;;;;;;;6.93;2.85;;;21.10;42.50;;;;;;5014387;28;20408;-73
2022/05/04 13:23:21;;;;;;;8.93;2.70;;;21.20;43.00;;;;;;5014585;28;20377;-73